sensor_id;sensor_type;location;lat;lon;timestamp;temperature;humidity
73568;SHT30;61847;54.994;73.310;2022-11-20T00:00:05;-15.32;79.45
73568;SHT30;61847;54.994;73.310;2022-11-20T00:02:33;-15.31;79.45
73568;SHT30;61847;54.994;73.310;2022-11-20T00:05:06;-15.38;79.39
73568;SHT30;61847;54.994;73.310;2022-11-20T00:07:39;-15.44;79.54
73568;SHT30;61847;54.994;73.310;2022-11-20T00:10:06;-15.39;79.49
73568;SHT30;61847;54.994;73.310;2022-11-20T00:12:33;-15.42;79.38
73568;SHT30;61847;54.994;73.310;2022-11-20T00:15:01;-15.42;79.47
73568;SHT30;61847;54.994;73.310;2022-11-20T00:17:28;-15.45;79.54
73568;SHT30;61847;54.994;73.310;2022-11-20T00:19:54;-15.39;79.42
73568;SHT30;61847;54.994;73.310;2022-11-20T00:22:33;-15.39;79.17
73568;SHT30;61847;54.994;73.310;2022-11-20T00:25:00;-15.44;79.29
73568;SHT30;61847;54.994;73.310;2022-11-20T00:27:28;-15.41;79.17
73568;SHT30;61847;54.994;73.310;2022-11-20T00:30:05;-15.41;79.06
73568;SHT30;61847;54.994;73.310;2022-11-20T00:32:34;-15.42;79.15
73568;SHT30;61847;54.994;73.310;2022-11-20T00:35:01;-15.46;79.17
73568;SHT30;61847;54.994;73.310;2022-11-20T00:37:29;-15.48;79.18
73568;SHT30;61847;54.994;73.310;2022-11-20T00:39:57;-15.46;79.08
73568;SHT30;61847;54.994;73.310;2022-11-20T00:42:25;-15.48;79.02
73568;SHT30;61847;54.994;73.310;2022-11-20T00:44:53;-15.51;79.10
73568;SHT30;61847;54.994;73.310;2022-11-20T00:47:30;-15.49;78.96
73568;SHT30;61847;54.994;73.310;2022-11-20T00:49:58;-15.51;78.89
73568;SHT30;61847;54.994;73.310;2022-11-20T00:52:28;-15.49;78.88
73568;SHT30;61847;54.994;73.310;2022-11-20T00:54:55;-15.48;78.77
73568;SHT30;61847;54.994;73.310;2022-11-20T00:57:24;-15.48;78.63
73568;SHT30;61847;54.994;73.310;2022-11-20T00:59:51;-15.53;78.69
73568;SHT30;61847;54.994;73.310;2022-11-20T01:02:28;-15.58;78.86
73568;SHT30;61847;54.994;73.310;2022-11-20T01:05:09;-15.62;78.81
73568;SHT30;61847;54.994;73.310;2022-11-20T01:07:49;-15.58;78.86
73568;SHT30;61847;54.994;73.310;2022-11-20T01:10:21;-15.56;78.55
73568;SHT30;61847;54.994;73.310;2022-11-20T01:12:54;-15.58;78.44
73568;SHT30;61847;54.994;73.310;2022-11-20T01:15:39;-15.53;78.49
73568;SHT30;61847;54.994;73.310;2022-11-20T01:18:07;-15.55;78.40
73568;SHT30;61847;54.994;73.310;2022-11-20T01:20:35;-15.56;78.33
73568;SHT30;61847;54.994;73.310;2022-11-20T01:23:04;-15.55;78.28
73568;SHT30;61847;54.994;73.310;2022-11-20T01:25:35;-15.56;78.29
73568;SHT30;61847;54.994;73.310;2022-11-20T01:28:02;-15.51;78.26
73568;SHT30;61847;54.994;73.310;2022-11-20T01:30:30;-15.52;78.05
73568;SHT30;61847;54.994;73.310;2022-11-20T01:32:58;-15.48;77.79
73568;SHT30;61847;54.994;73.310;2022-11-20T01:35:24;-15.52;77.70
73568;SHT30;61847;54.994;73.310;2022-11-20T01:37:56;-15.49;77.56
73568;SHT30;61847;54.994;73.310;2022-11-20T01:40:23;-15.53;77.77
73568;SHT30;61847;54.994;73.310;2022-11-20T01:43:00;-15.55;77.73
73568;SHT30;61847;54.994;73.310;2022-11-20T01:48:38;-15.46;77.21
73568;SHT30;61847;54.994;73.310;2022-11-20T01:51:23;-15.51;77.20
73568;SHT30;61847;54.994;73.310;2022-11-20T01:53:58;-15.52;77.23
73568;SHT30;61847;54.994;73.310;2022-11-20T01:56:38;-15.49;76.85
73568;SHT30;61847;54.994;73.310;2022-11-20T01:59:08;-15.53;76.76
73568;SHT30;61847;54.994;73.310;2022-11-20T02:01:36;-15.53;76.66
73568;SHT30;61847;54.994;73.310;2022-11-20T02:04:19;-15.53;76.51
73568;SHT30;61847;54.994;73.310;2022-11-20T02:06:55;-15.56;76.49
73568;SHT30;61847;54.994;73.310;2022-11-20T02:09:32;-15.61;76.49
73568;SHT30;61847;54.994;73.310;2022-11-20T02:12:03;-15.62;76.49
73568;SHT30;61847;54.994;73.310;2022-11-20T02:14:42;-15.63;76.33
73568;SHT30;61847;54.994;73.310;2022-11-20T02:17:09;-15.67;76.26
73568;SHT30;61847;54.994;73.310;2022-11-20T02:19:38;-15.72;76.05
73568;SHT30;61847;54.994;73.310;2022-11-20T02:22:12;-15.70;75.95
73568;SHT30;61847;54.994;73.310;2022-11-20T02:24:45;-15.74;75.90
73568;SHT30;61847;54.994;73.310;2022-11-20T02:27:23;-15.82;76.17
73568;SHT30;61847;54.994;73.310;2022-11-20T02:30:00;-15.86;76.37
73568;SHT30;61847;54.994;73.310;2022-11-20T02:32:33;-15.89;76.34
73568;SHT30;61847;54.994;73.310;2022-11-20T02:37:48;-15.97;76.17
73568;SHT30;61847;54.994;73.310;2022-11-20T02:40:25;-16.01;75.98
73568;SHT30;61847;54.994;73.310;2022-11-20T02:42:52;-16.08;76.27
73568;SHT30;61847;54.994;73.310;2022-11-20T02:45:20;-16.10;76.11
73568;SHT30;61847;54.994;73.310;2022-11-20T02:47:52;-16.10;75.98
73568;SHT30;61847;54.994;73.310;2022-11-20T02:50:20;-16.11;75.89
73568;SHT30;61847;54.994;73.310;2022-11-20T02:52:51;-16.20;75.88
73568;SHT30;61847;54.994;73.310;2022-11-20T02:55:17;-16.14;75.88
73568;SHT30;61847;54.994;73.310;2022-11-20T02:57:43;-16.20;76.00
73568;SHT30;61847;54.994;73.310;2022-11-20T03:00:11;-16.26;76.10
73568;SHT30;61847;54.994;73.310;2022-11-20T03:02:39;-16.28;75.93
73568;SHT30;61847;54.994;73.310;2022-11-20T03:05:06;-16.28;75.91
73568;SHT30;61847;54.994;73.310;2022-11-20T03:07:36;-16.29;75.85
73568;SHT30;61847;54.994;73.310;2022-11-20T03:10:06;-16.28;75.92
73568;SHT30;61847;54.994;73.310;2022-11-20T03:12:34;-16.22;75.59
73568;SHT30;61847;54.994;73.310;2022-11-20T03:15:00;-16.21;75.68
73568;SHT30;61847;54.994;73.310;2022-11-20T03:17:27;-16.18;75.54
73568;SHT30;61847;54.994;73.310;2022-11-20T03:19:56;-16.28;75.52
73568;SHT30;61847;54.994;73.310;2022-11-20T03:22:23;-16.32;75.65
73568;SHT30;61847;54.994;73.310;2022-11-20T03:24:51;-16.28;75.82
73568;SHT30;61847;54.994;73.310;2022-11-20T03:27:18;-16.25;75.70
73568;SHT30;61847;54.994;73.310;2022-11-20T03:29:46;-16.24;75.54
73568;SHT30;61847;54.994;73.310;2022-11-20T03:32:23;-16.17;75.41
73568;SHT30;61847;54.994;73.310;2022-11-20T03:34:51;-16.14;75.19
73568;SHT30;61847;54.994;73.310;2022-11-20T03:37:18;-16.18;75.13
73568;SHT30;61847;54.994;73.310;2022-11-20T03:39:56;-16.11;74.98
73568;SHT30;61847;54.994;73.310;2022-11-20T03:42:26;-16.12;74.73
73568;SHT30;61847;54.994;73.310;2022-11-20T03:45:17;-16.12;74.98
73568;SHT30;61847;54.994;73.310;2022-11-20T03:47:45;-16.05;74.86
73568;SHT30;61847;54.994;73.310;2022-11-20T03:50:19;-16.01;74.58
73568;SHT30;61847;54.994;73.310;2022-11-20T03:52:46;-15.95;74.27
73568;SHT30;61847;54.994;73.310;2022-11-20T03:55:12;-15.93;74.04
73568;SHT30;61847;54.994;73.310;2022-11-20T03:57:40;-15.95;74.03
73568;SHT30;61847;54.994;73.310;2022-11-20T04:00:12;-15.90;74.20
73568;SHT30;61847;54.994;73.310;2022-11-20T04:02:51;-15.89;73.75
73568;SHT30;61847;54.994;73.310;2022-11-20T04:05:24;-15.84;73.75
73568;SHT30;61847;54.994;73.310;2022-11-20T04:07:57;-15.84;73.90
73568;SHT30;61847;54.994;73.310;2022-11-20T04:10:27;-15.79;73.58
73568;SHT30;61847;54.994;73.310;2022-11-20T04:13:04;-15.72;73.36
73568;SHT30;61847;54.994;73.310;2022-11-20T04:15:31;-15.65;73.27
73568;SHT30;61847;54.994;73.310;2022-11-20T04:17:58;-15.62;72.98
73568;SHT30;61847;54.994;73.310;2022-11-20T04:20:27;-15.56;72.92
73568;SHT30;61847;54.994;73.310;2022-11-20T04:22:58;-15.52;72.56
73568;SHT30;61847;54.994;73.310;2022-11-20T04:25:28;-15.48;72.59
73568;SHT30;61847;54.994;73.310;2022-11-20T04:28:07;-15.38;72.61
73568;SHT30;61847;54.994;73.310;2022-11-20T04:30:38;-15.32;72.31
73568;SHT30;61847;54.994;73.310;2022-11-20T04:33:16;-15.30;72.04
73568;SHT30;61847;54.994;73.310;2022-11-20T04:36:04;-15.24;71.89
73568;SHT30;61847;54.994;73.310;2022-11-20T04:38:33;-15.10;71.40
73568;SHT30;61847;54.994;73.310;2022-11-20T04:41:04;-14.99;71.03
73568;SHT30;61847;54.994;73.310;2022-11-20T04:43:37;-14.90;70.83
73568;SHT30;61847;54.994;73.310;2022-11-20T04:46:09;-14.86;70.44
73568;SHT30;61847;54.994;73.310;2022-11-20T04:48:38;-14.73;69.91
73568;SHT30;61847;54.994;73.310;2022-11-20T04:51:16;-14.62;69.48
73568;SHT30;61847;54.994;73.310;2022-11-20T04:53:43;-14.42;69.42
73568;SHT30;61847;54.994;73.310;2022-11-20T04:56:19;-14.33;68.83
73568;SHT30;61847;54.994;73.310;2022-11-20T04:58:45;-14.16;68.27
73568;SHT30;61847;54.994;73.310;2022-11-20T05:01:24;-14.09;67.49
73568;SHT30;61847;54.994;73.310;2022-11-20T05:04:00;-13.96;67.62
73568;SHT30;61847;54.994;73.310;2022-11-20T05:06:28;-13.89;67.18
73568;SHT30;61847;54.994;73.310;2022-11-20T05:08:58;-13.82;66.75
73568;SHT30;61847;54.994;73.310;2022-11-20T05:11:37;-13.75;66.65
73568;SHT30;61847;54.994;73.310;2022-11-20T05:14:06;-13.72;66.13
73568;SHT30;61847;54.994;73.310;2022-11-20T05:16:34;-13.62;65.81
73568;SHT30;61847;54.994;73.310;2022-11-20T05:19:01;-13.62;65.56
73568;SHT30;61847;54.994;73.310;2022-11-20T05:21:30;-13.54;65.65
73568;SHT30;61847;54.994;73.310;2022-11-20T05:24:07;-13.49;65.41
73568;SHT30;61847;54.994;73.310;2022-11-20T05:26:37;-13.51;65.16
73568;SHT30;61847;54.994;73.310;2022-11-20T05:29:03;-13.55;64.78
73568;SHT30;61847;54.994;73.310;2022-11-20T05:31:29;-13.49;65.02
73568;SHT30;61847;54.994;73.310;2022-11-20T05:33:58;-13.48;64.90
73568;SHT30;61847;54.994;73.310;2022-11-20T05:36:24;-13.42;65.02
73568;SHT30;61847;54.994;73.310;2022-11-20T05:38:51;-13.42;64.69
73568;SHT30;61847;54.994;73.310;2022-11-20T05:41:20;-13.38;64.46
73568;SHT30;61847;54.994;73.310;2022-11-20T05:43:49;-13.37;64.45
73568;SHT30;61847;54.994;73.310;2022-11-20T05:46:20;-13.27;64.10
73568;SHT30;61847;54.994;73.310;2022-11-20T05:48:58;-13.20;64.52
73568;SHT30;61847;54.994;73.310;2022-11-20T05:51:27;-13.16;64.33
73568;SHT30;61847;54.994;73.310;2022-11-20T05:53:53;-13.13;64.20
73568;SHT30;61847;54.994;73.310;2022-11-20T05:56:21;-13.13;63.97
73568;SHT30;61847;54.994;73.310;2022-11-20T05:58:49;-13.13;63.64
73568;SHT30;61847;54.994;73.310;2022-11-20T06:01:22;-13.07;64.13
73568;SHT30;61847;54.994;73.310;2022-11-20T06:03:49;-13.06;64.02
73568;SHT30;61847;54.994;73.310;2022-11-20T06:06:21;-13.01;64.18
73568;SHT30;61847;54.994;73.310;2022-11-20T06:08:51;-12.99;64.72
73568;SHT30;61847;54.994;73.310;2022-11-20T06:11:17;-12.95;64.80
73568;SHT30;61847;54.994;73.310;2022-11-20T06:13:44;-12.90;65.17
73568;SHT30;61847;54.994;73.310;2022-11-20T06:16:19;-12.88;65.31
73568;SHT30;61847;54.994;73.310;2022-11-20T06:18:47;-12.90;65.14
73568;SHT30;61847;54.994;73.310;2022-11-20T06:21:18;-12.92;65.53
73568;SHT30;61847;54.994;73.310;2022-11-20T06:23:46;-12.90;66.01
73568;SHT30;61847;54.994;73.310;2022-11-20T06:26:25;-12.85;66.28
73568;SHT30;61847;54.994;73.310;2022-11-20T06:28:55;-12.80;66.62
73568;SHT30;61847;54.994;73.310;2022-11-20T06:31:25;-12.83;66.88
73568;SHT30;61847;54.994;73.310;2022-11-20T06:33:52;-12.73;66.81
73568;SHT30;61847;54.994;73.310;2022-11-20T06:36:22;-12.75;67.19
73568;SHT30;61847;54.994;73.310;2022-11-20T06:38:53;-12.71;67.40
73568;SHT30;61847;54.994;73.310;2022-11-20T06:41:21;-12.67;67.44
73568;SHT30;61847;54.994;73.310;2022-11-20T06:43:50;-12.62;67.73
73568;SHT30;61847;54.994;73.310;2022-11-20T06:46:19;-12.59;67.69
73568;SHT30;61847;54.994;73.310;2022-11-20T06:48:55;-12.57;67.50
73568;SHT30;61847;54.994;73.310;2022-11-20T06:51:26;-12.54;67.77
73568;SHT30;61847;54.994;73.310;2022-11-20T06:53:54;-12.49;68.17
73568;SHT30;61847;54.994;73.310;2022-11-20T06:56:21;-12.44;68.34
73568;SHT30;61847;54.994;73.310;2022-11-20T06:58:49;-12.38;68.20
73568;SHT30;61847;54.994;73.310;2022-11-20T07:01:16;-12.31;68.87
73568;SHT30;61847;54.994;73.310;2022-11-20T07:03:43;-12.34;68.63
73568;SHT30;61847;54.994;73.310;2022-11-20T07:06:14;-12.30;68.79
73568;SHT30;61847;54.994;73.310;2022-11-20T07:08:40;-12.26;68.94
73568;SHT30;61847;54.994;73.310;2022-11-20T07:11:07;-12.24;69.02
73568;SHT30;61847;54.994;73.310;2022-11-20T07:13:34;-12.17;69.23
73568;SHT30;61847;54.994;73.310;2022-11-20T07:16:04;-12.14;68.91
73568;SHT30;61847;54.994;73.310;2022-11-20T07:18:31;-12.09;68.76
73568;SHT30;61847;54.994;73.310;2022-11-20T07:21:01;-11.97;68.82
73568;SHT30;61847;54.994;73.310;2022-11-20T07:23:28;-11.86;68.64
73568;SHT30;61847;54.994;73.310;2022-11-20T07:25:56;-11.76;68.42
73568;SHT30;61847;54.994;73.310;2022-11-20T07:28:24;-11.69;68.39
73568;SHT30;61847;54.994;73.310;2022-11-20T07:30:53;-11.62;68.41
73568;SHT30;61847;54.994;73.310;2022-11-20T07:33:20;-11.63;68.14
73568;SHT30;61847;54.994;73.310;2022-11-20T07:35:50;-11.65;68.26
73568;SHT30;61847;54.994;73.310;2022-11-20T07:38:17;-11.62;68.01
73568;SHT30;61847;54.994;73.310;2022-11-20T07:40:45;-11.56;68.23
73568;SHT30;61847;54.994;73.310;2022-11-20T07:43:17;-11.52;68.50
73568;SHT30;61847;54.994;73.310;2022-11-20T07:45:43;-11.51;67.55
73568;SHT30;61847;54.994;73.310;2022-11-20T07:48:20;-11.52;67.50
73568;SHT30;61847;54.994;73.310;2022-11-20T07:50:48;-11.52;67.27
73568;SHT30;61847;54.994;73.310;2022-11-20T07:53:16;-11.51;68.58
73568;SHT30;61847;54.994;73.310;2022-11-20T07:55:46;-11.55;68.69
73568;SHT30;61847;54.994;73.310;2022-11-20T07:58:15;-11.51;68.83
73568;SHT30;61847;54.994;73.310;2022-11-20T08:00:43;-11.50;68.93
73568;SHT30;61847;54.994;73.310;2022-11-20T08:03:10;-11.45;68.85
73568;SHT30;61847;54.994;73.310;2022-11-20T08:05:36;-11.47;68.46
73568;SHT30;61847;54.994;73.310;2022-11-20T08:08:04;-11.41;68.41
73568;SHT30;61847;54.994;73.310;2022-11-20T08:10:32;-11.38;68.35
73568;SHT30;61847;54.994;73.310;2022-11-20T08:12:58;-11.48;67.91
73568;SHT30;61847;54.994;73.310;2022-11-20T08:15:49;-11.44;67.77
73568;SHT30;61847;54.994;73.310;2022-11-20T08:18:21;-11.41;67.94
73568;SHT30;61847;54.994;73.310;2022-11-20T08:20:49;-11.44;66.97
73568;SHT30;61847;54.994;73.310;2022-11-20T08:23:24;-11.38;66.75
73568;SHT30;61847;54.994;73.310;2022-11-20T08:26:02;-11.28;67.48
73568;SHT30;61847;54.994;73.310;2022-11-20T08:28:31;-11.19;67.47
73568;SHT30;61847;54.994;73.310;2022-11-20T08:31:02;-11.16;67.39
73568;SHT30;61847;54.994;73.310;2022-11-20T08:33:30;-11.24;67.40
73568;SHT30;61847;54.994;73.310;2022-11-20T08:36:23;-11.31;67.49
73568;SHT30;61847;54.994;73.310;2022-11-20T08:39:05;-11.38;67.42
73568;SHT30;61847;54.994;73.310;2022-11-20T08:41:43;-11.40;67.70
73568;SHT30;61847;54.994;73.310;2022-11-20T08:44:14;-11.37;67.61
73568;SHT30;61847;54.994;73.310;2022-11-20T08:46:47;-11.35;66.72
73568;SHT30;61847;54.994;73.310;2022-11-20T08:49:26;-11.26;66.29
73568;SHT30;61847;54.994;73.310;2022-11-20T08:51:55;-11.21;66.23
73568;SHT30;61847;54.994;73.310;2022-11-20T08:54:36;-11.21;66.07
73568;SHT30;61847;54.994;73.310;2022-11-20T08:57:04;-11.19;66.11
73568;SHT30;61847;54.994;73.310;2022-11-20T08:59:30;-11.17;65.61
73568;SHT30;61847;54.994;73.310;2022-11-20T09:01:59;-11.14;65.60
73568;SHT30;61847;54.994;73.310;2022-11-20T09:04:28;-11.17;65.76
73568;SHT30;61847;54.994;73.310;2022-11-20T09:06:59;-11.12;65.38
73568;SHT30;61847;54.994;73.310;2022-11-20T09:09:38;-11.07;65.43
73568;SHT30;61847;54.994;73.310;2022-11-20T09:12:18;-10.95;65.48
73568;SHT30;61847;54.994;73.310;2022-11-20T09:14:51;-11.02;64.89
73568;SHT30;61847;54.994;73.310;2022-11-20T09:17:21;-11.02;64.72
73568;SHT30;61847;54.994;73.310;2022-11-20T09:19:49;-11.07;64.84
73568;SHT30;61847;54.994;73.310;2022-11-20T09:22:17;-11.09;64.88
73568;SHT30;61847;54.994;73.310;2022-11-20T09:24:45;-11.09;64.98
73568;SHT30;61847;54.994;73.310;2022-11-20T09:27:20;-11.13;64.99
73568;SHT30;61847;54.994;73.310;2022-11-20T09:29:49;-11.12;65.67
73568;SHT30;61847;54.994;73.310;2022-11-20T09:32:15;-11.14;66.10
73568;SHT30;61847;54.994;73.310;2022-11-20T09:34:44;-11.12;66.56
73568;SHT30;61847;54.994;73.310;2022-11-20T09:37:16;-11.09;65.89
73568;SHT30;61847;54.994;73.310;2022-11-20T09:39:45;-11.10;66.24
73568;SHT30;61847;54.994;73.310;2022-11-20T09:42:14;-11.14;66.39
73568;SHT30;61847;54.994;73.310;2022-11-20T09:45:16;-11.16;66.37
73568;SHT30;61847;54.994;73.310;2022-11-20T09:48:00;-11.17;66.74
73568;SHT30;61847;54.994;73.310;2022-11-20T09:53:50;-11.16;67.94
73568;SHT30;61847;54.994;73.310;2022-11-20T09:56:22;-11.20;68.35
73568;SHT30;61847;54.994;73.310;2022-11-20T09:58:52;-11.26;68.25
73568;SHT30;61847;54.994;73.310;2022-11-20T10:01:30;-11.31;68.85
73568;SHT30;61847;54.994;73.310;2022-11-20T10:04:17;-11.33;69.46
73568;SHT30;61847;54.994;73.310;2022-11-20T10:09:40;-11.37;69.06
73568;SHT30;61847;54.994;73.310;2022-11-20T10:15:41;-11.41;69.39
73568;SHT30;61847;54.994;73.310;2022-11-20T10:18:27;-11.47;69.34
73568;SHT30;61847;54.994;73.310;2022-11-20T10:27:10;-11.42;69.32
73568;SHT30;61847;54.994;73.310;2022-11-20T10:29:45;-11.41;69.26
73568;SHT30;61847;54.994;73.310;2022-11-20T10:32:20;-11.42;68.95
73568;SHT30;61847;54.994;73.310;2022-11-20T10:38:01;-11.42;68.91
73568;SHT30;61847;54.994;73.310;2022-11-20T10:40:41;-11.40;68.93
73568;SHT30;61847;54.994;73.310;2022-11-20T10:48:36;-11.38;69.10
73568;SHT30;61847;54.994;73.310;2022-11-20T10:57:20;-11.45;68.35
73568;SHT30;61847;54.994;73.310;2022-11-20T11:00:05;-11.44;68.59
73568;SHT30;61847;54.994;73.310;2022-11-20T11:02:53;-11.42;68.72
73568;SHT30;61847;54.994;73.310;2022-11-20T11:08:00;-11.41;68.49
73568;SHT30;61847;54.994;73.310;2022-11-20T11:10:59;-11.42;68.89
73568;SHT30;61847;54.994;73.310;2022-11-20T11:13:30;-11.44;68.89
73568;SHT30;61847;54.994;73.310;2022-11-20T11:15:59;-11.42;69.18
73568;SHT30;61847;54.994;73.310;2022-11-20T11:18:33;-11.48;69.25
73568;SHT30;61847;54.994;73.310;2022-11-20T11:21:02;-11.48;69.10
73568;SHT30;61847;54.994;73.310;2022-11-20T11:23:38;-11.47;69.41
73568;SHT30;61847;54.994;73.310;2022-11-20T11:26:23;-11.45;68.91
73568;SHT30;61847;54.994;73.310;2022-11-20T11:29:03;-11.45;68.78
73568;SHT30;61847;54.994;73.310;2022-11-20T11:31:40;-11.41;69.03
73568;SHT30;61847;54.994;73.310;2022-11-20T11:34:14;-11.42;68.78
73568;SHT30;61847;54.994;73.310;2022-11-20T11:36:54;-11.50;69.11
73568;SHT30;61847;54.994;73.310;2022-11-20T11:39:24;-11.48;69.32
73568;SHT30;61847;54.994;73.310;2022-11-20T11:42:04;-11.45;69.23
73568;SHT30;61847;54.994;73.310;2022-11-20T11:44:32;-11.47;69.42
73568;SHT30;61847;54.994;73.310;2022-11-20T11:47:44;-11.45;69.18
73568;SHT30;61847;54.994;73.310;2022-11-20T11:50:24;-11.44;69.32
73568;SHT30;61847;54.994;73.310;2022-11-20T11:53:14;-11.50;69.60
73568;SHT30;61847;54.994;73.310;2022-11-20T11:55:50;-11.48;69.39
73568;SHT30;61847;54.994;73.310;2022-11-20T11:58:47;-11.52;69.39
73568;SHT30;61847;54.994;73.310;2022-11-20T12:01:35;-11.59;69.50
73568;SHT30;61847;54.994;73.310;2022-11-20T12:07:29;-11.52;69.67
73568;SHT30;61847;54.994;73.310;2022-11-20T12:13:04;-11.59;69.86
73568;SHT30;61847;54.994;73.310;2022-11-20T12:15:44;-11.52;69.99
73568;SHT30;61847;54.994;73.310;2022-11-20T12:18:21;-11.55;69.92
73568;SHT30;61847;54.994;73.310;2022-11-20T12:21:11;-11.51;69.79
73568;SHT30;61847;54.994;73.310;2022-11-20T12:38:27;-11.56;70.04
73568;SHT30;61847;54.994;73.310;2022-11-20T12:53:28;-11.59;70.02
73568;SHT30;61847;54.994;73.310;2022-11-20T13:08:02;-11.68;69.68
73568;SHT30;61847;54.994;73.310;2022-11-20T13:10:43;-11.65;69.97
73568;SHT30;61847;54.994;73.310;2022-11-20T13:18:41;-11.71;70.33
73568;SHT30;61847;54.994;73.310;2022-11-20T13:21:20;-11.73;70.42
73568;SHT30;61847;54.994;73.310;2022-11-20T13:24:20;-11.79;70.37
73568;SHT30;61847;54.994;73.310;2022-11-20T13:29:37;-11.82;70.67
73568;SHT30;61847;54.994;73.310;2022-11-20T13:32:18;-11.85;70.51
73568;SHT30;61847;54.994;73.310;2022-11-20T13:35:00;-11.86;70.55
73568;SHT30;61847;54.994;73.310;2022-11-20T13:37:34;-11.89;70.22
73568;SHT30;61847;54.994;73.310;2022-11-20T13:42:46;-11.89;70.57
73568;SHT30;61847;54.994;73.310;2022-11-20T13:45:26;-11.92;70.57
73568;SHT30;61847;54.994;73.310;2022-11-20T13:47:53;-11.92;70.79
73568;SHT30;61847;54.994;73.310;2022-11-20T14:01:24;-12.00;70.47
73568;SHT30;61847;54.994;73.310;2022-11-20T14:04:08;-11.99;70.40
73568;SHT30;61847;54.994;73.310;2022-11-20T14:06:45;-12.05;70.63
73568;SHT30;61847;54.994;73.310;2022-11-20T14:09:34;-12.10;70.57
73568;SHT30;61847;54.994;73.310;2022-11-20T14:12:02;-12.17;70.58
73568;SHT30;61847;54.994;73.310;2022-11-20T14:14:33;-12.21;70.61
73568;SHT30;61847;54.994;73.310;2022-11-20T14:17:15;-12.26;70.49
73568;SHT30;61847;54.994;73.310;2022-11-20T14:19:44;-12.30;70.43
73568;SHT30;61847;54.994;73.310;2022-11-20T14:22:21;-12.33;70.34
73568;SHT30;61847;54.994;73.310;2022-11-20T14:24:59;-12.34;70.15
73568;SHT30;61847;54.994;73.310;2022-11-20T14:27:28;-12.48;70.44
73568;SHT30;61847;54.994;73.310;2022-11-20T14:30:12;-12.55;70.70
73568;SHT30;61847;54.994;73.310;2022-11-20T14:32:42;-12.57;70.67
73568;SHT30;61847;54.994;73.310;2022-11-20T14:35:18;-12.59;70.52
73568;SHT30;61847;54.994;73.310;2022-11-20T14:37:49;-12.68;70.30
73568;SHT30;61847;54.994;73.310;2022-11-20T14:40:33;-12.71;70.26
73568;SHT30;61847;54.994;73.310;2022-11-20T14:46:07;-12.78;70.13
73568;SHT30;61847;54.994;73.310;2022-11-20T14:48:45;-12.78;70.11
73568;SHT30;61847;54.994;73.310;2022-11-20T14:51:36;-12.78;70.22
73568;SHT30;61847;54.994;73.310;2022-11-20T14:54:19;-12.79;70.37
73568;SHT30;61847;54.994;73.310;2022-11-20T14:57:03;-12.83;70.24
73568;SHT30;61847;54.994;73.310;2022-11-20T14:59:41;-12.82;70.34
73568;SHT30;61847;54.994;73.310;2022-11-20T15:02:10;-12.89;70.36
73568;SHT30;61847;54.994;73.310;2022-11-20T15:05:05;-12.88;70.49
73568;SHT30;61847;54.994;73.310;2022-11-20T15:07:44;-12.85;70.63
73568;SHT30;61847;54.994;73.310;2022-11-20T15:10:25;-12.89;70.43
73568;SHT30;61847;54.994;73.310;2022-11-20T15:13:02;-12.88;70.51
73568;SHT30;61847;54.994;73.310;2022-11-20T15:15:35;-12.95;70.54
73568;SHT30;61847;54.994;73.310;2022-11-20T15:18:04;-12.97;70.51
73568;SHT30;61847;54.994;73.310;2022-11-20T15:20:32;-13.04;70.80
73568;SHT30;61847;54.994;73.310;2022-11-20T15:23:10;-13.09;70.71
73568;SHT30;61847;54.994;73.310;2022-11-20T15:25:42;-13.10;70.71
73568;SHT30;61847;54.994;73.310;2022-11-20T15:28:23;-13.14;70.59
73568;SHT30;61847;54.994;73.310;2022-11-20T15:31:03;-13.21;70.86
73568;SHT30;61847;54.994;73.310;2022-11-20T15:33:33;-13.27;71.03
73568;SHT30;61847;54.994;73.310;2022-11-20T15:36:01;-13.26;71.29
73568;SHT30;61847;54.994;73.310;2022-11-20T15:38:28;-13.32;71.54
73568;SHT30;61847;54.994;73.310;2022-11-20T15:41:06;-13.38;71.75
73568;SHT30;61847;54.994;73.310;2022-11-20T15:43:50;-13.37;71.79
73568;SHT30;61847;54.994;73.310;2022-11-20T15:46:24;-13.31;71.86
73568;SHT30;61847;54.994;73.310;2022-11-20T15:48:56;-13.34;72.08
73568;SHT30;61847;54.994;73.310;2022-11-20T15:51:35;-13.30;71.95
73568;SHT30;61847;54.994;73.310;2022-11-20T15:54:19;-13.34;72.10
73568;SHT30;61847;54.994;73.310;2022-11-20T15:56:48;-13.31;72.31
73568;SHT30;61847;54.994;73.310;2022-11-20T15:59:15;-13.31;72.48
73568;SHT30;61847;54.994;73.310;2022-11-20T16:01:42;-13.35;72.53
73568;SHT30;61847;54.994;73.310;2022-11-20T16:04:13;-13.42;72.76
73568;SHT30;61847;54.994;73.310;2022-11-20T16:06:44;-13.44;72.99
73568;SHT30;61847;54.994;73.310;2022-11-20T16:09:23;-13.42;73.15
73568;SHT30;61847;54.994;73.310;2022-11-20T16:11:59;-13.41;73.07
73568;SHT30;61847;54.994;73.310;2022-11-20T16:14:27;-13.51;73.20
73568;SHT30;61847;54.994;73.310;2022-11-20T16:17:13;-13.52;73.29
73568;SHT30;61847;54.994;73.310;2022-11-20T16:19:50;-13.54;73.16
73568;SHT30;61847;54.994;73.310;2022-11-20T16:22:21;-13.56;73.23
73568;SHT30;61847;54.994;73.310;2022-11-20T16:24:47;-13.59;73.28
73568;SHT30;61847;54.994;73.310;2022-11-20T16:27:27;-13.69;73.68
73568;SHT30;61847;54.994;73.310;2022-11-20T16:30:09;-13.70;73.80
73568;SHT30;61847;54.994;73.310;2022-11-20T16:32:37;-13.68;73.95
73568;SHT30;61847;54.994;73.310;2022-11-20T16:35:10;-13.65;73.90
73568;SHT30;61847;54.994;73.310;2022-11-20T16:37:49;-13.66;73.96
73568;SHT30;61847;54.994;73.310;2022-11-20T16:40:18;-13.75;74.30
73568;SHT30;61847;54.994;73.310;2022-11-20T16:42:45;-13.76;74.40
73568;SHT30;61847;54.994;73.310;2022-11-20T16:45:14;-13.76;74.46
73568;SHT30;61847;54.994;73.310;2022-11-20T16:47:41;-13.72;74.55
73568;SHT30;61847;54.994;73.310;2022-11-20T16:50:19;-13.66;74.36
73568;SHT30;61847;54.994;73.310;2022-11-20T16:52:57;-13.69;74.50
73568;SHT30;61847;54.994;73.310;2022-11-20T16:55:35;-13.70;74.58
73568;SHT30;61847;54.994;73.310;2022-11-20T16:58:14;-13.72;74.86
73568;SHT30;61847;54.994;73.310;2022-11-20T17:00:46;-13.65;74.89
73568;SHT30;61847;54.994;73.310;2022-11-20T17:03:14;-13.59;74.55
73568;SHT30;61847;54.994;73.310;2022-11-20T17:05:46;-13.56;74.66
73568;SHT30;61847;54.994;73.310;2022-11-20T17:08:17;-13.62;74.80
73568;SHT30;61847;54.994;73.310;2022-11-20T17:10:53;-13.59;74.85
73568;SHT30;61847;54.994;73.310;2022-11-20T17:13:22;-13.61;74.84
73568;SHT30;61847;54.994;73.310;2022-11-20T17:16:01;-13.58;74.92
73568;SHT30;61847;54.994;73.310;2022-11-20T17:18:30;-13.55;74.97
73568;SHT30;61847;54.994;73.310;2022-11-20T17:21:04;-13.55;74.93
73568;SHT30;61847;54.994;73.310;2022-11-20T17:23:39;-13.55;75.16
73568;SHT30;61847;54.994;73.310;2022-11-20T17:26:17;-13.45;75.09